createdAt,value
2022-08-11T00:00:36.790Z,54.7
2022-08-11T00:01:38.544Z,54.9
2022-08-11T00:02:40.245Z,54.9
2022-08-11T00:03:42.670Z,54.9
2022-08-11T00:04:43.803Z,54.7
2022-08-11T00:05:44.868Z,54.8
2022-08-11T00:06:46.783Z,54.7
2022-08-11T00:07:48.525Z,54.6
2022-08-11T00:08:50.052Z,54.6
2022-08-11T00:09:51.804Z,54.7
2022-08-11T00:10:52.851Z,54.8
2022-08-11T00:11:58.551Z,54.7
2022-08-11T00:12:56.790Z,54.6
2022-08-11T00:13:57.812Z,54.6
2022-08-11T00:14:58.972Z,54.4
2022-08-11T00:16:00.808Z,54.5
2022-08-11T00:17:01.812Z,54.4
2022-08-11T00:18:03.053Z,54.4
2022-08-11T00:19:04.816Z,54.3
2022-08-11T00:20:11.202Z,54.3
2022-08-11T00:21:06.798Z,54.3
2022-08-11T00:22:07.835Z,54.1
2022-08-11T00:23:08.874Z,54
2022-08-11T00:24:09.822Z,54
2022-08-11T00:25:10.803Z,54
2022-08-11T00:26:12.101Z,54.1
2022-08-11T00:27:14.126Z,54.2
2022-08-11T00:28:14.805Z,54.3
2022-08-11T00:29:16.339Z,54.3
2022-08-11T00:30:18.917Z,54.2
2022-08-11T00:31:20.832Z,54.2
2022-08-11T00:32:21.830Z,54.2
2022-08-11T00:33:22.973Z,54.4
2022-08-11T00:34:24.867Z,54.3
2022-08-11T00:35:50.274Z,54.3
2022-08-11T00:36:27.950Z,54.2
2022-08-11T00:37:29.838Z,54.2
2022-08-11T00:38:30.832Z,54.2
2022-08-11T00:39:31.901Z,54.1
2022-08-11T00:40:32.859Z,54.2
2022-08-11T00:41:33.844Z,54.1
2022-08-11T00:42:34.871Z,54
2022-08-11T00:43:35.832Z,54.2
2022-08-11T00:44:37.543Z,54.1
2022-08-11T00:45:38.844Z,54.1
2022-08-11T00:46:39.867Z,54.2
2022-08-11T00:47:40.859Z,54.2
2022-08-11T00:48:42.056Z,54.2
2022-08-11T00:49:43.860Z,54.4
2022-08-11T00:50:44.854Z,54.4
2022-08-11T00:51:59.771Z,54.6
2022-08-11T00:52:47.844Z,54.8
2022-08-11T00:53:48.899Z,54.8
2022-08-11T00:54:49.857Z,54.8
2022-08-11T00:55:55.378Z,54.7
2022-08-11T00:56:52.891Z,54.7
2022-08-11T00:57:53.929Z,54.6
2022-08-11T00:58:55.962Z,54.6
2022-08-11T00:59:57.873Z,54.9
2022-08-11T01:00:58.921Z,54.9
2022-08-11T01:01:59.880Z,54.9
2022-08-11T01:03:00.936Z,55
2022-08-11T01:04:03.954Z,55
2022-08-11T01:05:06.545Z,54.8
2022-08-11T01:06:08.239Z,54.6
2022-08-11T01:07:08.884Z,54.5
2022-08-11T01:08:09.940Z,54.8
2022-08-11T01:09:18.818Z,54.9
2022-08-11T01:10:12.883Z,54.8
2022-08-11T01:11:13.892Z,54.8
2022-08-11T01:12:14.918Z,54.9
2022-08-11T01:13:15.951Z,55
2022-08-11T01:14:26.891Z,55.2
2022-08-11T01:15:25.988Z,55.4
2022-08-11T01:16:27.929Z,55.5
2022-08-11T01:17:28.997Z,55.6
2022-08-11T01:18:31.031Z,55.3
2022-08-11T01:19:32.915Z,55.3
2022-08-11T01:20:46.341Z,55.2
2022-08-11T01:21:34.941Z,55.6
2022-08-11T01:22:35.932Z,55.8
2022-08-11T01:23:36.912Z,56
2022-08-11T01:24:37.937Z,56.5
2022-08-11T01:25:56.556Z,56.7
2022-08-11T01:26:39.917Z,56.8
2022-08-11T01:27:41.039Z,56.8
2022-08-11T01:28:42.917Z,56.8
2022-08-11T01:29:48.184Z,56.9
2022-08-11T01:30:45.215Z,56.9
2022-08-11T01:31:48.042Z,57
2022-08-11T01:32:50.041Z,56.8
2022-08-11T01:33:52.122Z,56.8
2022-08-11T01:34:53.943Z,56.7
2022-08-11T01:35:54.944Z,56.7
2022-08-11T01:36:56.522Z,56.7
2022-08-11T01:37:56.987Z,56.5
2022-08-11T01:38:58.932Z,56.4
2022-08-11T01:40:00.347Z,56.4
2022-08-11T01:41:02.164Z,56.5
2022-08-11T01:42:03.950Z,56.4
2022-08-11T01:43:04.931Z,56.3
2022-08-11T01:44:09.895Z,56.2
2022-08-11T01:45:07.004Z,56
2022-08-11T01:46:08.953Z,55.6
2022-08-11T01:47:09.947Z,55.4
2022-08-11T01:48:10.952Z,55.3
2022-08-11T01:49:29.355Z,55.2
2022-08-11T01:50:14.030Z,55.3
2022-08-11T01:51:16.792Z,55.2
2022-08-11T01:52:17.964Z,55.2
2022-08-11T01:53:18.970Z,55.1
2022-08-11T01:54:19.966Z,54.9
2022-08-11T01:55:21.012Z,54.9
2022-08-11T01:56:22.144Z,54.9
2022-08-11T01:57:23.953Z,54.9
2022-08-11T01:58:30.978Z,54.8
2022-08-11T01:59:25.971Z,54.7
2022-08-11T02:00:27.130Z,54.7
2022-08-11T02:01:28.989Z,54.6
2022-08-11T02:02:29.974Z,54.8
2022-08-11T02:03:30.987Z,54.8
2022-08-11T02:04:31.969Z,54.7
2022-08-11T02:05:33.003Z,54.9
2022-08-11T02:06:33.980Z,55.1
2022-08-11T02:07:34.995Z,55.3
2022-08-11T02:08:36.019Z,55.4
2022-08-11T02:09:37.186Z,55.6
2022-08-11T02:10:39.019Z,55.7
2022-08-11T02:11:40.483Z,55.8
2022-08-11T02:12:42.193Z,55.8
2022-08-11T02:13:42.115Z,55.9
2022-08-11T02:14:43.016Z,55.9
2022-08-11T02:15:43.983Z,55.8
2022-08-11T02:16:45.001Z,55.7
2022-08-11T02:17:45.980Z,55.7
2022-08-11T02:18:47.048Z,55.6
2022-08-11T02:19:48.050Z,55.6
2022-08-11T02:20:49.999Z,55.7
2022-08-11T02:21:51.038Z,55.9
2022-08-11T02:22:52.119Z,56
2022-08-11T02:23:59.716Z,56.1
2022-08-11T02:24:55.075Z,56.1
2022-08-11T02:25:57.353Z,56
2022-08-11T02:26:59.088Z,56
2022-08-11T02:28:01.039Z,55.8
2022-08-11T02:29:02.041Z,55.9
2022-08-11T02:30:03.081Z,55.8
2022-08-11T02:31:05.045Z,55.9
2022-08-11T02:32:14.239Z,55.9
2022-08-11T02:33:07.080Z,55.8
2022-08-11T02:34:09.034Z,55.6
2022-08-11T02:35:10.020Z,55.7
2022-08-11T02:36:11.030Z,55.6
2022-08-11T02:37:12.042Z,55.5
2022-08-11T02:38:13.066Z,55.5
2022-08-11T02:39:14.089Z,55.5
2022-08-11T02:40:15.023Z,55.5
2022-08-11T02:41:16.041Z,55.5
2022-08-11T02:42:31.936Z,55.4
2022-08-11T02:43:18.574Z,55.5
2022-08-11T02:44:20.034Z,55.8
2022-08-11T02:45:21.171Z,55.9
2022-08-11T02:46:23.074Z,55.8
2022-08-11T02:47:25.157Z,55.8
2022-08-11T02:48:27.085Z,55.9
2022-08-11T02:49:29.135Z,56
2022-08-11T02:50:31.089Z,56.1
2022-08-11T02:51:32.060Z,56.1
2022-08-11T02:52:33.095Z,56.2
2022-08-11T02:53:34.066Z,56.1
2022-08-11T02:54:35.091Z,56.2
2022-08-11T02:55:46.953Z,56.4
2022-08-11T02:56:37.071Z,56.5
2022-08-11T02:57:38.045Z,56.6
2022-08-11T02:58:39.060Z,56.8
2022-08-11T02:59:40.131Z,56.9
2022-08-11T03:00:42.244Z,56.9
2022-08-11T03:01:44.264Z,56.8
2022-08-11T03:02:46.180Z,56.6
2022-08-11T03:03:48.178Z,56.5
2022-08-11T03:04:50.260Z,56.5
2022-08-11T03:05:52.705Z,56.7
2022-08-11T03:06:54.193Z,56.7
2022-08-11T03:07:56.299Z,56.7
2022-08-11T03:08:58.311Z,56.8
2022-08-11T03:10:00.237Z,56.8
2022-08-11T03:11:02.210Z,56.8
2022-08-11T03:12:04.249Z,56.8
2022-08-11T03:13:06.225Z,56.9
2022-08-11T03:14:08.214Z,56.9
2022-08-11T03:15:10.230Z,57
2022-08-11T03:16:12.206Z,57.1
2022-08-11T03:17:14.229Z,57.2
2022-08-11T03:18:16.258Z,57.1
2022-08-11T03:19:18.218Z,57.1
2022-08-11T03:20:20.230Z,57.1
2022-08-11T03:21:22.324Z,57.1
2022-08-11T03:22:24.237Z,57.1
2022-08-11T03:23:26.235Z,57.1
2022-08-11T03:24:28.256Z,57.2
2022-08-11T03:25:30.239Z,57.2
2022-08-11T03:26:32.295Z,57.2
2022-08-11T03:27:34.219Z,57.4
2022-08-11T03:28:36.244Z,57.5
2022-08-11T03:29:38.264Z,57.5
2022-08-11T03:30:40.499Z,57.5
2022-08-11T03:31:42.843Z,57.6
2022-08-11T03:32:44.736Z,57.8
2022-08-11T03:33:46.226Z,57.8
2022-08-11T03:34:48.247Z,58
2022-08-11T03:35:50.237Z,57.9
2022-08-11T03:37:15.954Z,57.9
2022-08-11T03:37:54.235Z,57.9
2022-08-11T03:38:56.243Z,57.8
2022-08-11T03:39:58.285Z,57.8
2022-08-11T03:41:00.293Z,57.8
2022-08-11T03:42:06.021Z,57.7
2022-08-11T03:43:04.269Z,57.6
2022-08-11T03:44:06.254Z,57.5
2022-08-11T03:45:08.251Z,57.5
2022-08-11T03:46:10.250Z,57.5
2022-08-11T03:47:12.308Z,57.5
2022-08-11T03:48:14.271Z,57.6
2022-08-11T03:49:16.252Z,57.6
2022-08-11T03:50:18.267Z,57.7
2022-08-11T03:51:20.273Z,57.6
2022-08-11T03:52:22.293Z,57.6
2022-08-11T03:53:24.304Z,57.5
2022-08-11T03:54:26.264Z,57.5
2022-08-11T03:55:28.255Z,57.5
2022-08-11T03:56:30.266Z,57.6
2022-08-11T03:57:32.301Z,57.7
2022-08-11T03:58:38.193Z,57.6
2022-08-11T03:59:36.285Z,57.6
2022-08-11T04:00:38.299Z,57.4
2022-08-11T04:01:40.364Z,57.2
2022-08-11T04:02:42.305Z,57.1
2022-08-11T04:03:44.452Z,57.1
2022-08-11T04:04:50.565Z,57
2022-08-11T04:05:48.304Z,56.8
2022-08-11T04:06:50.295Z,56.9
2022-08-11T04:07:52.274Z,56.9
2022-08-11T04:08:54.290Z,56.9
2022-08-11T04:09:56.320Z,56.8
2022-08-11T04:10:58.330Z,56.5
2022-08-11T04:12:00.295Z,56.4
2022-08-11T04:13:02.296Z,56.2
2022-08-11T04:14:04.291Z,56.1
2022-08-11T04:15:06.389Z,56.1
2022-08-11T04:16:10.749Z,56.1
2022-08-11T04:17:10.309Z,56.1
2022-08-11T04:18:12.301Z,56
2022-08-11T04:19:14.308Z,56
2022-08-11T04:20:16.394Z,56
2022-08-11T04:21:18.308Z,56.1
2022-08-11T04:22:20.301Z,56.4
2022-08-11T04:24:13.715Z,56.6
2022-08-11T04:24:37.398Z,56.8
2022-08-11T04:25:26.349Z,56.8
2022-08-11T04:26:28.338Z,56.9
2022-08-11T04:27:35.388Z,56.9
2022-08-11T04:28:32.343Z,56.9
2022-08-11T04:29:36.101Z,56.9
2022-08-11T04:30:37.635Z,56.7
2022-08-11T04:31:44.022Z,56.5
2022-08-11T04:32:40.362Z,56.3
2022-08-11T04:33:42.332Z,56
2022-08-11T04:34:44.335Z,55.8
2022-08-11T04:35:50.853Z,55.8
2022-08-11T04:36:48.345Z,55.7
2022-08-11T04:37:50.810Z,55.5
2022-08-11T04:38:52.374Z,55.4
2022-08-11T04:39:54.454Z,55.4
2022-08-11T04:40:56.332Z,55.1
2022-08-11T04:41:58.341Z,55
2022-08-11T04:43:00.388Z,54.8
2022-08-11T04:44:05.957Z,54.6
2022-08-11T04:45:04.426Z,54.6
2022-08-11T04:46:06.354Z,54.7
2022-08-11T04:47:08.394Z,54.5
2022-08-11T04:48:10.357Z,54.4
2022-08-11T04:49:12.427Z,54.4
2022-08-11T04:50:14.375Z,54.5
2022-08-11T04:51:17.635Z,54.6
2022-08-11T04:52:18.374Z,54.5
2022-08-11T04:53:20.362Z,54.4
2022-08-11T04:54:26.472Z,54.3
2022-08-11T04:55:24.374Z,54.3
2022-08-11T04:56:26.397Z,54.2
2022-08-11T04:57:28.352Z,54.2
2022-08-11T04:58:31.420Z,54
2022-08-11T04:59:32.405Z,54.1
2022-08-11T05:00:34.423Z,54.1
2022-08-11T05:01:37.446Z,54.4
2022-08-11T05:02:38.528Z,54.3
2022-08-11T05:03:40.415Z,54.5
2022-08-11T05:04:42.411Z,54.2
2022-08-11T05:05:54.571Z,54.2
2022-08-11T05:06:46.404Z,54.2
2022-08-11T05:07:48.385Z,54.1
2022-08-11T05:08:50.401Z,53.9
2022-08-11T05:09:52.389Z,53.8
2022-08-11T05:10:54.430Z,54
2022-08-11T05:11:57.714Z,53.9
2022-08-11T05:12:58.393Z,53.8
2022-08-11T05:14:00.395Z,53.4
2022-08-11T05:15:02.568Z,52.9
2022-08-11T05:16:04.475Z,53.1
2022-08-11T05:17:06.454Z,53
2022-08-11T05:18:08.427Z,52.4
2022-08-11T05:19:10.429Z,52.4
2022-08-11T05:20:12.458Z,51.8
2022-08-11T05:21:14.420Z,51.6
2022-08-11T05:22:16.466Z,51.1
2022-08-11T05:23:18.441Z,50.8
2022-08-11T05:24:20.409Z,50.6
2022-08-11T05:26:09.224Z,50.7
2022-08-11T05:26:45.625Z,50.9
2022-08-11T05:27:26.436Z,51
2022-08-11T05:28:28.449Z,50.9
2022-08-11T05:29:30.415Z,50.6
2022-08-11T05:30:34.478Z,50
2022-08-11T05:31:34.438Z,49.8
2022-08-11T05:32:36.749Z,49.9
2022-08-11T05:33:38.517Z,49.9
2022-08-11T05:34:40.431Z,49.9
2022-08-11T05:36:01.184Z,49.4
2022-08-11T05:36:44.432Z,49.1
2022-08-11T05:37:46.456Z,49
2022-08-11T05:38:48.449Z,48.9
2022-08-11T05:39:50.474Z,48.9
2022-08-11T05:40:53.252Z,49
2022-08-11T05:41:54.474Z,49.1
2022-08-11T05:42:56.411Z,49.3
2022-08-11T05:44:19.351Z,48.9
2022-08-11T05:45:00.456Z,49
2022-08-11T05:46:04.917Z,48.9
2022-08-11T05:47:04.484Z,49
2022-08-11T05:48:06.460Z,49
2022-08-11T05:49:08.455Z,49.2
2022-08-11T05:50:13.428Z,48.8
2022-08-11T05:51:12.469Z,48.4
2022-08-11T05:52:16.442Z,48.3
2022-08-11T05:53:16.483Z,48.6
2022-08-11T05:54:28.993Z,48.3
2022-08-11T05:55:20.491Z,48.3
2022-08-11T05:56:22.453Z,48.2
2022-08-11T05:57:38.661Z,48.2
2022-08-11T05:58:26.623Z,48.2
2022-08-11T05:59:28.528Z,48.1
2022-08-11T06:00:30.542Z,47.9
2022-08-11T06:01:32.551Z,47.6
2022-08-11T06:02:34.538Z,47.2
2022-08-11T06:03:36.568Z,47
2022-08-11T06:04:38.482Z,47
2022-08-11T06:05:43.811Z,47
2022-08-11T06:06:45.458Z,47.2
2022-08-11T06:07:48.468Z,47.2
2022-08-11T06:08:46.543Z,46.8
2022-08-11T06:09:48.488Z,46.8
2022-08-11T06:10:50.485Z,46.3
2022-08-11T06:11:52.478Z,45.6
2022-08-11T06:12:54.508Z,45
2022-08-11T06:13:56.650Z,44
2022-08-11T06:14:58.495Z,42.8
2022-08-11T06:16:03.645Z,41.4
2022-08-11T06:17:02.494Z,40.2
2022-08-11T06:18:04.488Z,38.9
2022-08-11T06:19:06.556Z,38.2
2022-08-11T06:20:08.510Z,37.2
2022-08-11T06:21:10.518Z,36.8
2022-08-11T06:22:12.540Z,36.5
2022-08-11T06:23:14.588Z,35.9
2022-08-11T06:24:16.551Z,35.2
2022-08-11T06:25:18.576Z,35
2022-08-11T06:26:20.525Z,34.8
2022-08-11T06:27:22.512Z,34.6
2022-08-11T06:28:24.515Z,34.1
2022-08-11T06:29:37.710Z,33.7
2022-08-11T06:30:28.526Z,33.2
2022-08-11T06:31:30.520Z,32.5
2022-08-11T06:32:32.622Z,32.8
2022-08-11T06:33:34.545Z,33.6
2022-08-11T06:34:36.575Z,34.3
2022-08-11T06:35:38.529Z,34.2
2022-08-11T06:36:40.556Z,34.1
2022-08-11T06:37:42.552Z,34
2022-08-11T06:38:44.529Z,33.5
2022-08-11T06:39:46.679Z,33.4
2022-08-11T06:40:48.567Z,33.1
2022-08-11T06:41:50.537Z,33.1
2022-08-11T06:42:53.048Z,32.6
2022-08-11T06:43:55.715Z,32.4
2022-08-11T06:44:56.600Z,32.6
2022-08-11T06:45:58.853Z,32.7
2022-08-11T06:47:01.144Z,32.5
2022-08-11T06:48:03.659Z,32.4
2022-08-11T06:49:05.564Z,32.1
2022-08-11T06:50:07.605Z,31.3
2022-08-11T06:51:10.211Z,31
2022-08-11T06:52:12.891Z,30.4
2022-08-11T06:53:13.597Z,30.5
2022-08-11T06:54:15.731Z,30.5
2022-08-11T06:55:56.415Z,30.4
2022-08-11T06:56:19.566Z,29.8
2022-08-11T06:57:30.424Z,29.9
2022-08-11T06:58:22.995Z,29.9
2022-08-11T06:59:24.578Z,29.8
2022-08-11T07:00:26.617Z,29.6
2022-08-11T07:01:29.709Z,29.6
2022-08-11T07:02:33.099Z,29.1
2022-08-11T07:03:34.026Z,28.6
2022-08-11T07:04:35.799Z,28.6
2022-08-11T07:05:38.084Z,28.3
2022-08-11T07:06:41.714Z,28.8
2022-08-11T07:07:40.964Z,29.1
2022-08-11T07:08:42.090Z,29.3
2022-08-11T07:09:43.650Z,29.5
2022-08-11T07:10:45.645Z,29.1
2022-08-11T07:11:49.236Z,29
2022-08-11T07:12:50.666Z,28.7
2022-08-11T07:13:53.963Z,28.9
2022-08-11T07:15:02.308Z,29.8
2022-08-11T07:16:11.918Z,30.4
2022-08-11T07:17:06.862Z,30.7
2022-08-11T07:18:08.627Z,30.8
2022-08-11T07:19:10.614Z,30.7
2022-08-11T07:20:16.986Z,30.5
2022-08-11T07:21:42.849Z,30.2
2022-08-11T07:22:23.000Z,30.6
2022-08-11T07:23:24.661Z,31
2022-08-11T07:24:34.454Z,30.2
2022-08-11T07:25:33.244Z,30.2
2022-08-11T07:26:34.673Z,29.5
2022-08-11T07:27:37.608Z,29.8
2022-08-11T07:28:38.724Z,30
2022-08-11T07:29:41.769Z,29.9
2022-08-11T07:30:44.034Z,29.6
2022-08-11T07:31:45.077Z,29.5
2022-08-11T07:32:46.054Z,29.2
2022-08-11T07:34:04.965Z,28.7
2022-08-11T07:34:49.139Z,28.3
2022-08-11T07:35:50.109Z,28
2022-08-11T07:36:51.920Z,27.7
2022-08-11T07:38:01.514Z,27.4
2022-08-11T07:38:55.155Z,27.1
2022-08-11T07:39:56.809Z,27.3
2022-08-11T07:40:58.733Z,27.1
2022-08-11T07:42:00.635Z,26.9
2022-08-11T07:43:02.551Z,27.2
2022-08-11T07:44:03.078Z,27.1
2022-08-11T07:45:04.073Z,26.7
2022-08-11T07:46:05.110Z,26.7
2022-08-11T07:47:06.050Z,26.8
2022-08-11T07:48:07.670Z,26.8
2022-08-11T07:49:10.136Z,26.7
2022-08-11T07:50:11.028Z,27.2
2022-08-11T07:51:12.548Z,27.2
2022-08-11T07:52:13.141Z,27.3
2022-08-11T07:53:14.045Z,27.1
2022-08-11T07:54:16.755Z,27.1
2022-08-11T07:55:17.682Z,26.5
2022-08-11T07:56:21.840Z,26.7
2022-08-11T07:57:24.321Z,27.5
2022-08-11T07:58:23.103Z,28.1
2022-08-11T07:59:25.443Z,28.4
2022-08-11T08:00:25.082Z,28.1
2022-08-11T08:01:26.142Z,27.6
2022-08-11T08:02:28.926Z,27
2022-08-11T08:03:29.096Z,26.3
2022-08-11T08:04:30.129Z,26.4
2022-08-11T08:05:31.926Z,26.2
2022-08-11T08:06:35.959Z,26.2
2022-08-11T08:07:35.130Z,26.2
2022-08-11T08:08:36.086Z,26.5
2022-08-11T08:09:37.077Z,26.6
2022-08-11T08:10:38.096Z,26.5
2022-08-11T08:11:39.115Z,26.2
2022-08-11T08:12:40.197Z,26
2022-08-11T08:13:41.112Z,25.8
2022-08-11T08:14:42.169Z,25.4
2022-08-11T08:15:43.737Z,25.7
2022-08-11T08:16:45.723Z,26.3
2022-08-11T08:18:08.729Z,26.9
2022-08-11T08:18:49.123Z,27.6
2022-08-11T08:19:50.099Z,28.2
2022-08-11T08:20:51.130Z,27.8
2022-08-11T08:21:52.151Z,27.6
2022-08-11T08:22:53.619Z,27.4
2022-08-11T08:23:56.341Z,26.8
2022-08-11T08:24:56.062Z,26.4
2022-08-11T08:25:57.929Z,26.3
2022-08-11T08:26:59.826Z,26
2022-08-11T08:28:01.211Z,25.5
2022-08-11T08:29:02.522Z,25.2
2022-08-11T08:30:03.167Z,25.2
2022-08-11T08:31:04.530Z,25
2022-08-11T08:32:05.754Z,24.8
2022-08-11T08:33:07.227Z,25.2
2022-08-11T08:34:08.126Z,25.6
2022-08-11T08:35:09.219Z,25.9
2022-08-11T08:36:10.138Z,26
2022-08-11T08:37:15.541Z,26
2022-08-11T08:38:12.178Z,25.8
2022-08-11T08:39:13.314Z,25.4
2022-08-11T08:40:15.327Z,24.8
2022-08-11T08:41:16.558Z,24.8
2022-08-11T08:42:17.193Z,24.9
2022-08-11T08:43:18.891Z,25.1
2022-08-11T08:44:37.562Z,25.7
2022-08-11T08:45:21.807Z,26.3
2022-08-11T08:46:23.767Z,26.4
2022-08-11T08:47:42.814Z,26.5
2022-08-11T08:48:27.833Z,27.4
2022-08-11T08:49:29.348Z,28.4
2022-08-11T08:50:30.166Z,28.4
2022-08-11T08:51:54.995Z,28.1
2022-08-11T08:52:37.243Z,27.6
2022-08-11T08:53:35.191Z,27.2
2022-08-11T08:54:37.074Z,26.5
2022-08-11T08:55:40.291Z,26.3
2022-08-11T08:56:39.179Z,26.3
2022-08-11T08:57:42.106Z,26.5
2022-08-11T08:58:44.213Z,26.2
2022-08-11T08:59:48.076Z,25.9
2022-08-11T09:00:47.765Z,25.6
2022-08-11T09:01:49.901Z,25.2
2022-08-11T09:02:52.087Z,24.7
2022-08-11T09:04:04.401Z,24.3
2022-08-11T09:04:54.311Z,24.1
2022-08-11T09:05:55.319Z,23.9
2022-08-11T09:06:56.183Z,23.5
2022-08-11T09:07:57.695Z,23.8
2022-08-11T09:08:59.184Z,24.2
2022-08-11T09:10:00.241Z,24.2
2022-08-11T09:11:02.265Z,24.4
2022-08-11T09:12:03.214Z,24.3
2022-08-11T09:13:04.256Z,24.2
2022-08-11T09:14:08.336Z,24.2
2022-08-11T09:15:07.262Z,24.4
2022-08-11T09:16:08.224Z,24.6
2022-08-11T09:17:09.986Z,25
2022-08-11T09:18:11.211Z,25.4
2022-08-11T09:19:12.997Z,25.8
2022-08-11T09:20:14.894Z,25.8
2022-08-11T09:21:39.496Z,26.2
2022-08-11T09:22:18.340Z,26.2
2022-08-11T09:24:06.582Z,26.3
2022-08-11T09:24:26.228Z,26.1
2022-08-11T09:25:24.993Z,26.6
2022-08-11T09:26:30.336Z,26.7
2022-08-11T09:27:28.933Z,26.6
2022-08-11T09:28:31.488Z,27
2022-08-11T09:29:33.466Z,27.2
2022-08-11T09:30:34.941Z,27
2022-08-11T09:31:39.918Z,27.5
2022-08-11T09:32:40.507Z,27.9
2022-08-11T09:33:43.250Z,28.1
2022-08-11T09:34:44.866Z,28.3
2022-08-11T09:35:46.887Z,28.7
2022-08-11T09:36:49.539Z,29
2022-08-11T09:37:55.158Z,29.2
2022-08-11T09:38:53.497Z,29.4
2022-08-11T09:39:55.340Z,29.1
2022-08-11T09:40:57.228Z,28.3
2022-08-11T09:42:02.046Z,27.4
2022-08-11T09:43:02.959Z,27.1
2022-08-11T09:44:05.000Z,27.5
2022-08-11T09:45:08.389Z,27.6
2022-08-11T09:46:10.003Z,27.6
2022-08-11T09:47:11.980Z,27.8
2022-08-11T09:48:15.044Z,27.7
2022-08-11T09:49:18.836Z,27.6
2022-08-11T09:50:21.409Z,28.4
2022-08-11T09:51:22.980Z,29.2
2022-08-11T09:52:24.872Z,29.5
2022-08-11T09:53:35.512Z,29.4
2022-08-11T09:54:30.411Z,29.4
2022-08-11T09:55:31.927Z,29.4
2022-08-11T09:56:33.982Z,29.1
2022-08-11T09:57:35.926Z,29.3
2022-08-11T09:58:43.102Z,29.6
2022-08-11T09:59:39.923Z,29.5
2022-08-11T10:00:41.304Z,29.5
2022-08-11T10:01:42.864Z,29.5
2022-08-11T10:02:43.478Z,29
2022-08-11T10:03:46.976Z,28.5
2022-08-11T10:04:48.309Z,27.9
2022-08-11T10:05:50.608Z,27.1
2022-08-11T10:06:53.320Z,26
2022-08-11T10:07:52.317Z,25.3
2022-08-11T10:08:53.701Z,24.6
2022-08-11T10:09:55.312Z,24.4
2022-08-11T10:10:57.113Z,23.7
2022-08-11T10:11:59.874Z,23.3
2022-08-11T10:13:01.671Z,22.8
2022-08-11T10:14:32.375Z,23
2022-08-11T10:15:06.078Z,23.1
2022-08-11T10:16:14.905Z,23.9
2022-08-11T10:17:13.707Z,23.8
2022-08-11T10:18:16.711Z,24
2022-08-11T10:19:17.713Z,24.2
2022-08-11T10:20:23.953Z,24.4
2022-08-11T10:21:22.255Z,25
2022-08-11T10:22:23.909Z,25
2022-08-11T10:23:25.389Z,25
2022-08-11T10:24:26.570Z,25
2022-08-11T10:25:27.924Z,24.3
2022-08-11T10:26:29.557Z,23.8
2022-08-11T10:27:43.177Z,23.5
2022-08-11T10:28:49.935Z,23.7
2022-08-11T10:29:44.668Z,24.3
2022-08-11T10:30:42.363Z,25.1
2022-08-11T10:31:57.279Z,25.3
2022-08-11T10:32:51.061Z,25.6
2022-08-11T10:33:57.760Z,25
2022-08-11T10:34:49.713Z,25.5
2022-08-11T10:35:44.349Z,25.5
2022-08-11T10:36:45.714Z,25.7
2022-08-11T10:38:05.976Z,26.3
2022-08-11T10:38:47.434Z,26
2022-08-11T10:39:48.453Z,26.1
2022-08-11T10:40:49.365Z,25.8
2022-08-11T10:42:02.055Z,25.2
2022-08-11T10:42:57.616Z,24.7
2022-08-11T10:43:57.223Z,24.3
2022-08-11T10:44:53.385Z,24.1
2022-08-11T10:45:55.048Z,24.2
2022-08-11T10:46:57.024Z,24.3
2022-08-11T10:47:59.007Z,24.5
2022-08-11T10:49:01.098Z,25.1
2022-08-11T10:50:03.127Z,25.8
2022-08-11T10:51:05.018Z,26.4
2022-08-11T10:52:06.394Z,26.7
2022-08-11T10:53:07.633Z,27.3
2022-08-11T10:54:11.561Z,26.8
2022-08-11T10:55:09.496Z,27.3
2022-08-11T10:56:10.538Z,27.2
2022-08-11T10:57:11.440Z,26.9
2022-08-11T10:58:12.581Z,26.8
2022-08-11T10:59:13.437Z,26.7
2022-08-11T11:00:14.575Z,26.4
2022-08-11T11:01:15.496Z,25.3
2022-08-11T11:02:16.426Z,24.7
2022-08-11T11:03:22.595Z,24.8
2022-08-11T11:04:18.391Z,24.7
2022-08-11T11:05:19.592Z,24.4
2022-08-11T11:06:28.034Z,24.4
2022-08-11T11:07:23.046Z,24.2
2022-08-11T11:08:25.085Z,24.1
2022-08-11T11:09:27.242Z,24.6
2022-08-11T11:10:29.053Z,25
2022-08-11T11:11:31.335Z,25.3
2022-08-11T11:12:32.386Z,25.5
2022-08-11T11:13:33.452Z,25.9
2022-08-11T11:14:34.856Z,26.1
2022-08-11T11:15:35.465Z,25.9
2022-08-11T11:16:36.472Z,26.4
2022-08-11T11:17:37.435Z,26.6
2022-08-11T11:18:38.438Z,26
2022-08-11T11:19:39.449Z,25.7
2022-08-11T11:20:43.776Z,25
2022-08-11T11:21:42.402Z,24.9
2022-08-11T11:22:42.598Z,25.2
2022-08-11T11:23:43.445Z,25.1
2022-08-11T11:24:44.449Z,24.9
2022-08-11T11:25:46.153Z,24.3
2022-08-11T11:26:47.490Z,24.3
2022-08-11T11:27:48.466Z,24.8
2022-08-11T11:28:49.483Z,25.3
2022-08-11T11:29:50.480Z,26.2
2022-08-11T11:30:51.476Z,26.6
2022-08-11T11:31:52.459Z,26.6
2022-08-11T11:32:53.476Z,26.4
2022-08-11T11:33:57.502Z,26.5
2022-08-11T11:34:56.363Z,26.1
2022-08-11T11:35:58.973Z,26.1
2022-08-11T11:37:00.548Z,25.7
2022-08-11T11:38:03.924Z,25.6
2022-08-11T11:39:04.159Z,26.1
2022-08-11T11:40:07.042Z,25.8
2022-08-11T11:41:09.363Z,26.8
2022-08-11T11:42:11.956Z,26.7
2022-08-11T11:43:13.112Z,27.4
2022-08-11T11:44:15.144Z,28
2022-08-11T11:45:23.266Z,28.2
2022-08-11T11:46:19.243Z,28.4
2022-08-11T11:47:22.089Z,28.4
2022-08-11T11:48:24.981Z,29
2022-08-11T11:49:26.197Z,29.5
2022-08-11T11:50:29.362Z,29.4
2022-08-11T11:51:30.134Z,29.5
2022-08-11T11:52:32.380Z,29.2
2022-08-11T11:53:33.519Z,29.1
2022-08-11T11:54:34.566Z,28.9
2022-08-11T11:55:35.520Z,28.5
2022-08-11T11:56:36.549Z,28.2
2022-08-11T11:57:37.661Z,27.4
2022-08-11T11:58:38.628Z,26.4
2022-08-11T11:59:39.541Z,25.6
2022-08-11T12:00:43.418Z,25.2
2022-08-11T12:01:41.678Z,24.1
2022-08-11T12:02:42.601Z,23.7
2022-08-11T12:03:43.571Z,23.5
2022-08-11T12:04:44.527Z,23.3
2022-08-11T12:05:45.542Z,23.6
2022-08-11T12:06:46.573Z,23.6
2022-08-11T12:07:56.791Z,23.6
2022-08-11T12:08:48.559Z,23.3
2022-08-11T12:09:50.207Z,23.6
2022-08-11T12:10:52.175Z,23.9
2022-08-11T12:11:54.958Z,24.3
2022-08-11T12:12:56.340Z,24.5
2022-08-11T12:13:58.924Z,24.9
2022-08-11T12:15:00.250Z,25.5
2022-08-11T12:16:03.520Z,25.9
2022-08-11T12:17:04.241Z,26.3
2022-08-11T12:18:06.171Z,26.8
2022-08-11T12:19:08.303Z,27.1
2022-08-11T12:20:30.862Z,27.3
2022-08-11T12:21:12.257Z,27.2
2022-08-11T12:22:14.321Z,27.6
2022-08-11T12:23:15.567Z,27.8
2022-08-11T12:24:16.866Z,27.4
2022-08-11T12:25:17.770Z,27.3
2022-08-11T12:26:26.709Z,27.6
2022-08-11T12:27:20.240Z,26.7
2022-08-11T12:28:22.623Z,26.3
2022-08-11T12:29:24.273Z,26.5
2022-08-11T12:30:26.205Z,26.4
2022-08-11T12:31:28.200Z,26.7
2022-08-11T12:32:30.299Z,26.3
2022-08-11T12:33:35.127Z,26
2022-08-11T12:34:34.476Z,25.6
2022-08-11T12:35:36.335Z,26.1
2022-08-11T12:36:39.006Z,26.8
2022-08-11T12:37:40.443Z,27.6
2022-08-11T12:38:42.287Z,27.9
2022-08-11T12:40:13.314Z,27.9
2022-08-11T12:41:11.484Z,28
2022-08-11T12:41:48.307Z,28.2
2022-08-11T12:42:50.590Z,28.7
2022-08-11T12:43:56.273Z,28.5
2022-08-11T12:44:52.731Z,28.5
2022-08-11T12:45:54.259Z,28.4
2022-08-11T12:46:56.339Z,27.4
2022-08-11T12:48:07.872Z,26.3
2022-08-11T12:49:01.832Z,25.5
2022-08-11T12:50:00.430Z,25.1
2022-08-11T12:51:03.368Z,25.2
2022-08-11T12:52:14.149Z,25.1
2022-08-11T12:53:08.237Z,25
2022-08-11T12:54:11.321Z,24.9
2022-08-11T12:55:14.066Z,24.6
2022-08-11T12:56:16.757Z,24.6
2022-08-11T12:57:24.122Z,24.7
2022-08-11T12:58:22.581Z,25.1
2022-08-11T12:59:30.669Z,26.1
2022-08-11T13:00:35.019Z,26.2
2022-08-11T13:01:37.810Z,26.5
2022-08-11T13:02:44.335Z,26.9
2022-08-11T13:03:43.018Z,27.1
2022-08-11T13:04:46.617Z,27.3
2022-08-11T13:05:47.653Z,27
2022-08-11T13:06:49.311Z,26.6
2022-08-11T13:07:51.409Z,25.4
2022-08-11T13:08:51.697Z,24.7
2022-08-11T13:09:52.661Z,24.3
2022-08-11T13:10:55.459Z,23.4
2022-08-11T13:11:57.584Z,22.9
2022-08-11T13:12:57.675Z,22.3
2022-08-11T13:14:00.927Z,21.9
2022-08-11T13:15:02.343Z,21.7
2022-08-11T13:16:03.723Z,22.2
2022-08-11T13:17:04.863Z,22
2022-08-11T13:18:06.194Z,21.9
2022-08-11T13:19:07.669Z,21.4
2022-08-11T13:20:08.985Z,21.8
2022-08-11T13:21:09.870Z,21.2
2022-08-11T13:22:11.764Z,21.3
2022-08-11T13:23:13.151Z,20.9
2022-08-11T13:24:13.777Z,20.9
2022-08-11T13:25:14.989Z,21.4
2022-08-11T13:26:16.015Z,21.5
2022-08-11T13:27:16.861Z,21.5
2022-08-11T13:28:18.108Z,21.9
2022-08-11T13:29:20.231Z,21.9
2022-08-11T13:30:21.720Z,22.1
2022-08-11T13:31:23.328Z,22.3
2022-08-11T13:32:26.452Z,22.5
2022-08-11T13:33:29.687Z,22.7
2022-08-11T13:34:32.586Z,23
2022-08-11T13:35:35.682Z,23.7
2022-08-11T13:36:38.780Z,24.4
2022-08-11T13:38:18.041Z,24.8
2022-08-11T13:38:45.499Z,25.2
2022-08-11T13:39:45.391Z,25.5
2022-08-11T13:40:55.508Z,26.4
2022-08-11T13:41:50.136Z,27
2022-08-11T13:42:51.370Z,27.2
2022-08-11T13:43:53.401Z,27.5
2022-08-11T13:44:55.340Z,27.5
2022-08-11T13:45:56.846Z,27.6
2022-08-11T13:46:57.734Z,27.6